Doblas, Argentina
Current Conditions -  °F | °C
As of 12:00 PM on Friday 19 Dec 2014 (Local Time) from SAZN Reporting Station
Clear Clear  
Wind Chill: 81°   Ceiling: Unl
Heat Index: 81°   Visibility: 6mi
Dew Point: 37°   Wind: 17mph
Humidity: 21%   Direction: 250°WSW
Pressure: 29.56"   Gusts: 38mph
Location:  37.16°S, 63.72°W
Report Text: SAZN 191500Z 25015G33KT CAVOK 27/03 Q1001
Loading
Personal Weather Stations






























Interactive Weather Map New forecast layout! Learn more

10-Day Weather Forecast

Advertisements
Track Severe Weather on mobile